Time;durP1;ratioP1;P1;durP2;ratioP2;P2;SDS_P1;SDS_P2;PMS_P1;PMS_P2;Temp;Humidity;BMP_temperature;BMP_pressure;BME280_temperature;BME280_humidity;BME280_pressure;Samples;Min_cycle;Max_cycle;Signal;HPM_P1;HPM_P2
2022/10/01 00:00:34;;;;;;;7.40;2.90;;;;;;;19.52;59.23;101378.38;5072574;28;20423;-60
2022/10/01 00:03:00;;;;;;;10.73;3.20;;;;;;;19.47;59.26;101380.88;5066463;28;20798;-60
2022/10/01 00:05:26;;;;;;;6.17;2.70;;;;;;;19.46;59.37;101381.91;5066821;28;20812;-61
2022/10/01 00:07:51;;;;;;;8.90;3.00;;;;;;;19.45;59.41;101388.31;5066806;28;20444;-60
2022/10/01 00:10:17;;;;;;;4.73;3.13;;;;;;;19.44;59.43;101387.47;5066528;28;20487;-60
2022/10/01 00:13:13;;;;;;;5.38;3.05;;;;;;;19.43;59.21;101385.03;5077478;27;20408;-60
2022/10/01 00:15:40;;;;;;;4.77;3.00;;;;;;;19.42;59.43;101388.75;5066422;28;20395;-60
2022/10/01 00:18:07;;;;;;;6.87;3.17;;;;;;;19.43;59.41;101390.41;5066949;28;20391;-60
2022/10/01 00:21:44;;;;;;;7.28;3.05;;;;;;;19.40;59.31;101378.19;5093458;27;20410;-60
2022/10/01 00:24:11;;;;;;;5.22;2.75;;;;;;;19.39;59.51;101395.38;5072786;28;20451;-61
2022/10/01 00:26:37;;;;;;;4.50;3.00;;;;;;;19.38;59.48;101390.22;5087103;28;20394;-61
2022/10/01 00:29:10;;;;;;;5.50;3.00;;;;;;;19.37;59.54;101393.94;5069422;28;20396;-61
2022/10/01 00:31:36;;;;;;;3.45;2.90;;;;;;;19.33;59.46;101381.97;5076796;28;20389;-60
2022/10/01 00:36:13;;;;;;;13.65;7.97;;;;;;;19.34;59.56;101381.75;5094502;27;20416;-60
2022/10/01 00:38:39;;;;;;;7.78;4.93;;;;;;;19.34;59.62;101380.91;5054762;28;20464;-60
2022/10/01 00:41:06;;;;;;;10.02;4.35;;;;;;;19.32;59.43;101369.53;5046626;28;20370;-60
2022/10/01 00:43:36;;;;;;;6.13;4.30;;;;;;;19.28;59.44;101364.59;5056561;28;20388;-60
2022/10/01 00:46:13;;;;;;;13.30;9.52;;;;;;;19.27;59.65;101357.56;5049748;28;21598;-60
2022/10/01 00:48:54;;;;;;;6.03;3.30;;;;;;;19.29;59.50;101360.88;5056751;28;20870;-60
2022/10/01 00:51:20;;;;;;;4.80;3.25;;;;;;;19.27;59.38;101360.25;5048167;28;20382;-60
2022/10/01 00:53:46;;;;;;;5.13;2.93;;;;;;;19.17;59.37;101353.66;5046515;28;20385;-60
2022/10/01 00:57:21;;;;;;;5.78;3.15;;;;;;;19.20;59.57;101354.06;5054756;28;20410;-61
2022/10/01 00:59:48;;;;;;;6.47;3.37;;;;;;;19.18;59.53;101350.78;5028868;28;20410;-61
2022/10/01 01:02:14;;;;;;;5.03;3.03;;;;;;;19.15;59.47;101353.88;5026682;28;20463;-61
2022/10/01 01:04:40;;;;;;;9.52;3.40;;;;;;;19.12;59.52;101348.09;5026772;28;20384;-61
2022/10/01 01:07:07;;;;;;;7.05;3.17;;;;;;;19.11;59.39;101344.59;5027044;28;20758;-60
2022/10/01 01:09:36;;;;;;;4.68;3.20;;;;;;;19.08;59.56;101336.94;5026229;28;20828;-60
2022/10/01 01:12:31;;;;;;;6.40;3.30;;;;;;;19.08;59.47;101353.06;5026536;28;20433;-60
2022/10/01 01:15:32;;;;;;;7.80;3.50;;;;;;;19.04;59.58;101341.91;5024660;28;20905;-60
2022/10/01 01:18:16;;;;;;;6.13;3.03;;;;;;;19.01;59.66;101346.88;4991212;28;20937;-60
2022/10/01 01:20:59;;;;;;;4.20;3.13;;;;;;;18.89;59.71;101336.78;5013630;28;20398;-60
2022/10/01 01:23:46;;;;;;;5.38;3.10;;;;;;;18.81;59.87;101339.69;5030416;28;20388;-61
2022/10/01 01:26:28;;;;;;;5.18;3.10;;;;;;;18.82;59.99;101341.34;5026402;28;20454;-60
2022/10/01 01:29:01;;;;;;;6.45;3.50;;;;;;;18.80;60.00;101332.66;5026398;28;20447;-61
2022/10/01 01:32:45;;;;;;;4.15;3.30;;;;;;;18.64;60.69;101333.09;5093912;27;20915;-61
2022/10/01 01:35:18;;;;;;;5.78;3.30;;;;;;;18.65;60.59;101342.78;5079940;28;20773;-60
2022/10/01 01:37:50;;;;;;;3.35;2.95;;;;;;;18.66;60.41;101342.59;5066439;28;20478;-60
2022/10/01 01:40:18;;;;;;;4.95;3.08;;;;;;;18.70;60.23;101356.41;5066795;28;20394;-62
2022/10/01 01:43:40;;;;;;;4.38;3.22;;;;;;;18.71;60.05;101356.22;5093921;27;20412;-60
2022/10/01 01:46:09;;;;;;;4.70;3.28;;;;;;;18.68;59.94;101362.00;5067142;28;20404;-59
2022/10/01 01:48:38;;;;;;;4.43;3.00;;;;;;;18.65;60.28;101359.72;5066344;28;20799;-60
2022/10/01 01:51:24;;;;;;;5.30;2.92;;;;;;;18.62;60.06;101367.34;5066661;28;20384;-60
2022/10/01 01:53:50;;;;;;;6.70;3.35;;;;;;;18.60;60.19;101366.75;5052675;28;20426;-59
2022/10/01 01:56:17;;;;;;;6.85;3.42;;;;;;;18.60;60.07;101367.59;5066010;28;20483;-60
2022/10/01 02:00:41;;;;;;;5.75;3.20;;;;;;;18.55;60.11;101359.31;5054184;28;20409;-60
2022/10/01 02:05:12;;;;;;;4.80;3.05;;;;;;;18.56;60.03;101366.31;5044056;28;20821;-60
2022/10/01 02:08:08;;;;;;;5.00;3.25;;;;;;;18.58;59.65;101375.00;5039401;28;20407;-60
2022/10/01 02:11:00;;;;;;;7.70;3.17;;;;;;;18.57;59.93;101375.22;5037701;28;20405;-60
2022/10/01 02:14:06;;;;;;;3.78;3.10;;;;;;;18.57;59.99;101375.22;5038611;28;20389;-60
2022/10/01 02:16:50;;;;;;;4.18;2.83;;;;;;;18.53;59.92;101375.63;4995491;28;20405;-60
2022/10/01 02:19:15;;;;;;;5.75;3.10;;;;;;;18.49;59.98;101382.47;5036503;28;20476;-60
2022/10/01 02:23:08;;;;;;;7.47;2.85;;;;;;;18.49;59.99;101373.56;5078779;27;20462;-61
2022/10/01 02:25:41;;;;;;;5.85;3.05;;;;;;;18.48;60.03;101377.28;5052509;28;20783;-61
2022/10/01 02:28:10;;;;;;;4.40;3.20;;;;;;;18.50;59.91;101392.16;5066737;28;20886;-61
2022/10/01 02:33:33;;;;;;;5.35;3.30;;;;;;;18.44;60.15;101379.56;5077422;27;20408;-60
2022/10/01 02:36:00;;;;;;;5.05;3.45;;;;;;;18.47;60.03;101381.81;5050703;28;20476;-60
2022/10/01 02:40:17;;;;;;;5.75;3.40;;;;;;;18.40;60.08;101382.84;5089064;27;20466;-60
2022/10/01 02:42:51;;;;;;;5.95;3.30;;;;;;;18.38;59.96;101385.75;5066577;28;20396;-60
2022/10/01 02:45:21;;;;;;;6.15;2.95;;;;;;;18.34;59.83;101387.19;5066896;28;20418;-61
2022/10/01 02:49:41;;;;;;;5.78;3.63;;;;;;;18.30;60.25;101389.44;5075308;27;2125978;-61
2022/10/01 02:54:51;;;;;;;4.82;3.03;;;;;;;18.33;60.01;101398.97;5037346;28;20415;-60
2022/10/01 02:57:25;;;;;;;4.45;3.63;;;;;;;18.30;59.90;101394.81;5026759;28;20430;-61
2022/10/01 02:59:52;;;;;;;7.68;3.80;;;;;;;18.29;60.03;101393.19;5026637;28;20387;-60
2022/10/01 03:02:19;;;;;;;6.77;3.90;;;;;;;18.26;60.08;101393.59;5027254;28;20901;-60
2022/10/01 03:04:46;;;;;;;7.28;3.60;;;;;;;18.24;60.25;101384.06;5026545;28;20912;-60
2022/10/01 03:07:13;;;;;;;4.18;3.50;;;;;;;18.23;60.15;101385.13;5026742;28;20398;-60
2022/10/01 03:13:06;;;;;;;4.93;3.80;;;;;;;18.17;60.05;101378.72;5092807;27;20972;-60
2022/10/01 03:15:31;;;;;;;7.13;4.17;;;;;;;18.19;60.22;101375.81;5081117;28;20948;-60
2022/10/01 03:17:57;;;;;;;5.63;4.13;;;;;;;18.18;60.13;101372.28;5078234;28;20389;-61
2022/10/01 03:20:23;;;;;;;4.70;3.80;;;;;;;18.16;60.08;101374.38;5072344;28;20443;-61
2022/10/01 03:22:49;;;;;;;5.80;3.80;;;;;;;18.19;60.07;101384.69;5072507;28;20382;-60
2022/10/01 03:27:06;;;;;;;7.50;4.40;;;;;;;18.16;60.13;101398.50;5040195;28;20461;-60
2022/10/01 03:29:32;;;;;;;6.72;4.40;;;;;;;18.13;60.07;101398.91;5026538;28;20407;-60
2022/10/01 03:31:57;;;;;;;5.87;4.00;;;;;;;18.10;60.17;101404.72;5026927;28;20893;-60
2022/10/01 03:34:23;;;;;;;10.97;4.20;;;;;;;18.08;60.25;101396.84;5026231;28;20391;-62
2022/10/01 03:36:51;;;;;;;7.30;4.70;;;;;;;18.10;60.30;101397.47;5018235;28;20415;-60
2022/10/01 03:39:16;;;;;;;7.30;4.82;;;;;;;18.06;60.39;101404.28;5023097;28;20426;-60
2022/10/01 03:41:42;;;;;;;9.97;4.93;;;;;;;18.04;60.40;101400.97;5016631;28;20422;-61
2022/10/01 03:44:08;;;;;;;7.57;5.27;;;;;;;18.05;60.48;101399.13;5026228;28;20392;-60
2022/10/01 03:46:33;;;;;;;8.63;4.60;;;;;;;18.07;60.42;101415.84;5014895;28;20407;-60
2022/10/01 03:48:59;;;;;;;6.90;4.07;;;;;;;18.08;60.54;101412.94;5026607;28;20392;-61
2022/10/01 03:51:27;;;;;;;7.10;4.22;;;;;;;18.06;60.32;101412.34;5014630;28;20386;-61
2022/10/01 03:53:53;;;;;;;8.60;4.47;;;;;;;18.05;60.59;101409.84;5026532;28;20387;-60
2022/10/01 03:56:18;;;;;;;12.10;4.45;;;;;;;18.05;60.62;101416.03;5014596;28;20893;-60
2022/10/01 04:00:38;;;;;;;11.30;4.80;;;;;;;18.06;60.58;101412.34;5085370;27;20406;-60
2022/10/01 04:03:03;;;;;;;7.57;4.40;;;;;;;18.09;60.43;101408.41;5066925;28;20400;-60
2022/10/01 04:05:29;;;;;;;10.37;4.93;;;;;;;18.00;60.64;101406.94;5066830;28;20372;-61
2022/10/01 04:08:13;;;;;;;8.15;4.70;;;;;;;17.96;60.60;101407.34;5099691;27;20403;-60
2022/10/01 04:10:39;;;;;;;10.68;6.47;;;;;;;17.95;60.56;101405.69;5086835;28;20402;-60
2022/10/01 04:13:06;;;;;;;20.27;6.85;;;;;;;17.99;60.58;101408.81;5086400;28;20370;-60
2022/10/01 04:17:03;;;;;;;11.82;5.65;;;;;;;18.03;60.70;101414.59;5088193;27;20408;-61
2022/10/01 04:19:29;;;;;;;10.15;5.00;;;;;;;18.05;60.46;101426.75;5066376;28;20451;-60
2022/10/01 04:21:54;;;;;;;10.80;4.73;;;;;;;18.05;60.34;101420.56;5066852;28;20392;-61
2022/10/01 04:24:19;;;;;;;8.57;4.87;;;;;;;18.05;60.46;101420.56;5066543;28;20384;-60
2022/10/01 04:26:45;;;;;;;8.83;4.27;;;;;;;18.06;60.32;101424.91;5067034;28;20432;-60
2022/10/01 04:29:10;;;;;;;9.67;4.70;;;;;;;18.07;60.26;101416.66;5066061;28;20384;-60
2022/10/01 04:31:36;;;;;;;10.27;4.40;;;;;;;18.08;60.19;101409.44;5066584;28;20383;-61
2022/10/01 04:35:38;;;;;;;10.10;4.50;;;;;;;18.07;60.20;101400.56;5079640;27;20462;-60
2022/10/01 04:38:07;;;;;;;5.80;4.07;;;;;;;18.06;60.13;101398.91;5066718;28;20396;-60
2022/10/01 04:42:18;;;;;;;6.85;4.57;;;;;;;18.02;60.10;101394.16;5088721;27;20411;-60
2022/10/01 04:44:43;;;;;;;8.00;4.15;;;;;;;18.08;60.18;101398.72;5086787;28;20769;-61
2022/10/01 04:47:09;;;;;;;8.67;4.47;;;;;;;18.11;60.10;101406.34;5086803;28;20385;-61
2022/10/01 04:49:34;;;;;;;11.13;7.23;;;;;;;18.01;60.38;101397.88;5086441;28;20388;-60
2022/10/01 04:52:00;;;;;;;9.65;4.95;;;;;;;17.99;60.52;101411.50;5086782;28;20439;-61
2022/10/01 04:54:26;;;;;;;10.63;5.80;;;;;;;18.08;60.33;101407.59;5086764;28;20443;-60
2022/10/01 04:56:51;;;;;;;12.80;5.63;;;;;;;18.10;60.56;101408.19;5086515;28;20440;-61
2022/10/01 04:59:18;;;;;;;12.87;6.67;;;;;;;18.09;60.36;101419.13;5086621;28;20378;-61
2022/10/01 05:01:44;;;;;;;11.32;7.15;;;;;;;18.12;60.48;101424.09;5086372;28;20402;-61
2022/10/01 05:04:10;;;;;;;17.20;7.10;;;;;;;18.15;60.32;101431.75;5086527;28;20383;-61
2022/10/01 05:06:35;;;;;;;16.15;7.28;;;;;;;18.18;60.63;101428.66;5086519;28;20944;-61
2022/10/01 05:09:01;;;;;;;12.63;7.60;;;;;;;18.19;60.72;101419.59;5086350;28;20382;-61
2022/10/01 05:11:26;;;;;;;11.32;8.95;;;;;;;18.21;60.78;101404.09;5086225;28;20398;-61
2022/10/01 05:13:52;;;;;;;16.93;13.43;;;;;;;18.20;61.02;101420.41;5086220;28;20383;-61
2022/10/01 05:16:18;;;;;;;15.80;9.82;;;;;;;18.15;61.04;101419.16;5078883;28;20383;-60
2022/10/01 05:18:43;;;;;;;17.57;9.97;;;;;;;18.17;61.40;101424.34;5079408;28;20922;-61
2022/10/01 05:21:10;;;;;;;19.73;11.00;;;;;;;18.21;61.77;101430.94;5080156;28;20419;-61
2022/10/01 05:23:37;;;;;;;14.15;11.25;;;;;;;18.32;61.59;101443.75;5066065;28;20433;-61
2022/10/01 05:26:04;;;;;;;16.65;13.35;;;;;;;18.37;61.18;101455.75;5065598;28;20384;-61
2022/10/01 05:28:34;;;;;;;18.65;13.55;;;;;;;18.34;61.04;101448.91;5064686;28;20395;-62
2022/10/01 05:31:03;;;;;;;17.60;14.35;;;;;;;18.33;61.14;101436.53;5065431;28;20388;-62
2022/10/01 05:33:30;;;;;;;17.13;14.33;;;;;;;18.37;61.11;101442.34;5066107;28;20463;-61
2022/10/01 05:35:58;;;;;;;19.75;16.63;;;;;;;18.38;61.08;101449.34;5065555;28;20463;-61
2022/10/01 05:38:24;;;;;;;21.35;18.52;;;;;;;18.44;61.08;101435.94;5065591;28;20392;-62
2022/10/01 05:40:50;;;;;;;20.42;17.08;;;;;;;18.64;60.57;101443.19;5065433;28;20423;-60
2022/10/01 05:43:17;;;;;;;20.98;16.65;;;;;;;18.71;60.59;101449.41;5051662;28;20471;-60
2022/10/01 05:45:43;;;;;;;18.73;14.33;;;;;;;18.76;60.20;101440.69;5065568;28;20437;-60
2022/10/01 05:48:09;;;;;;;15.38;12.55;;;;;;;18.88;60.00;101439.09;5061174;28;20398;-60
2022/10/01 05:50:39;;;;;;;14.63;11.20;;;;;;;18.99;59.54;101443.81;5047257;28;20914;-60
2022/10/01 05:53:05;;;;;;;11.13;9.45;;;;;;;18.98;59.18;101439.50;5037769;28;20386;-61
2022/10/01 05:55:33;;;;;;;12.67;8.53;;;;;;;19.05;59.00;101442.16;5033950;28;20379;-60
2022/10/01 05:58:04;;;;;;;10.63;7.60;;;;;;;19.12;58.53;101450.22;5034120;28;20391;-60
2022/10/01 06:00:30;;;;;;;10.15;7.13;;;;;;;19.25;58.06;101447.53;5032918;28;20414;-60
2022/10/01 06:02:58;;;;;;;10.80;6.25;;;;;;;19.98;56.18;101449.97;5032965;28;20465;-60
2022/10/01 06:05:24;;;;;;;11.68;6.13;;;;;;;20.51;55.19;101445.31;5032117;28;20378;-60
2022/10/01 06:07:50;;;;;;;6.53;4.22;;;;;;;20.93;53.96;101432.19;5031919;28;20386;-60
2022/10/01 06:10:17;;;;;;;8.10;4.47;;;;;;;21.28;53.13;101431.63;5033608;28;20396;-60
2022/10/01 06:12:43;;;;;;;6.80;4.75;;;;;;;21.57;52.32;101435.47;5042575;28;20442;-61
2022/10/01 06:15:10;;;;;;;11.77;5.10;;;;;;;22.30;51.22;101444.53;5051105;28;20388;-61
2022/10/01 06:17:35;;;;;;;5.63;4.20;;;;;;;22.50;50.40;101442.34;5051130;28;20388;-61
2022/10/01 06:20:01;;;;;;;8.10;4.47;;;;;;;22.19;50.75;101440.69;5050770;28;20384;-61
2022/10/01 06:22:26;;;;;;;8.63;4.43;;;;;;;22.01;51.30;101441.56;5051636;28;20392;-60
2022/10/01 06:24:52;;;;;;;11.47;4.50;;;;;;;22.05;50.89;101431.94;5051662;28;20381;-60
2022/10/01 06:28:07;;;;;;;8.38;3.90;;;;;;;21.79;51.36;101448.50;5092630;27;20404;-60
2022/10/01 06:30:35;;;;;;;7.78;4.30;;;;;;;21.52;51.98;101438.84;5066845;28;20442;-61
2022/10/01 06:33:08;;;;;;;9.57;4.68;;;;;;;21.60;52.10;101453.91;5066553;28;20387;-60
2022/10/01 06:35:38;;;;;;;8.80;4.55;;;;;;;22.91;48.94;101458.72;5066712;28;20394;-60
2022/10/01 06:38:05;;;;;;;7.22;4.97;;;;;;;24.26;45.76;101458.63;5066360;28;20380;-61
2022/10/01 06:40:31;;;;;;;17.20;7.65;;;;;;;25.18;43.69;101430.28;5066531;28;20449;-60
2022/10/01 06:42:57;;;;;;;12.40;5.78;;;;;;;25.32;43.59;101438.09;5066213;28;20384;-60
2022/10/01 06:45:26;;;;;;;10.23;6.43;;;;;;;24.95;44.46;101447.56;5066744;28;20387;-60
2022/10/01 06:47:54;;;;;;;11.43;6.40;;;;;;;24.65;44.99;101449.81;5066140;28;20412;-59
2022/10/01 06:50:19;;;;;;;14.17;5.90;;;;;;;24.52;45.37;101445.50;5066359;28;20804;-59
2022/10/01 06:52:48;;;;;;;8.02;4.50;;;;;;;24.52;45.17;101451.75;5065755;28;20382;-60
2022/10/01 06:55:16;;;;;;;9.02;4.80;;;;;;;24.54;45.24;101451.53;5052428;28;20392;-61
2022/10/01 06:57:42;;;;;;;10.15;4.90;;;;;;;24.60;45.55;101454.09;5066303;28;21067;-60
2022/10/01 07:00:08;;;;;;;8.20;4.30;;;;;;;24.66;45.28;101452.28;5065983;28;20460;-61
2022/10/01 07:02:34;;;;;;;11.25;4.15;;;;;;;24.86;45.01;101445.53;5066142;28;20475;-60
2022/10/01 07:05:00;;;;;;;5.35;3.47;;;;;;;24.91;45.11;101430.16;5064832;28;20483;-61
2022/10/01 07:07:34;;;;;;;9.73;4.17;;;;;;;24.97;45.14;101434.59;5065117;28;20419;-62
2022/10/01 07:10:00;;;;;;;8.57;3.88;;;;;;;25.14;44.91;101433.75;5065364;28;20388;-61
2022/10/01 07:12:26;;;;;;;5.70;3.50;;;;;;;25.21;44.95;101439.81;5058238;28;20385;-61
2022/10/01 07:16:39;;;;;;;8.23;3.25;;;;;;;25.32;45.05;101438.09;5044973;28;20932;-61
2022/10/01 07:19:05;;;;;;;5.43;3.10;;;;;;;25.48;45.16;101450.78;5039843;28;20453;-60
2022/10/01 07:21:30;;;;;;;6.22;3.15;;;;;;;25.59;45.00;101449.03;5035034;28;20474;-63
2022/10/01 07:23:56;;;;;;;8.23;4.10;;;;;;;25.61;44.63;101454.22;5039686;28;20388;-61
2022/10/01 07:26:21;;;;;;;5.90;3.53;;;;;;;25.58;45.01;101452.81;5031790;28;20472;-60
2022/10/01 07:28:47;;;;;;;6.53;3.17;;;;;;;25.53;44.98;101450.88;5033751;28;20410;-61
2022/10/01 07:31:12;;;;;;;6.78;3.63;;;;;;;25.48;45.22;101444.53;5028634;28;20387;-63
2022/10/01 07:33:38;;;;;;;13.40;4.53;;;;;;;25.30;45.88;101438.34;5030372;28;20474;-61
2022/10/01 07:36:07;;;;;;;8.13;3.95;;;;;;;25.14;46.01;101425.63;5045857;28;20985;-60
2022/10/01 07:38:33;;;;;;;7.10;3.70;;;;;;;24.95;46.49;101428.59;5048379;28;20394;-60
2022/10/01 07:41:01;;;;;;;7.65;3.60;;;;;;;24.85;46.77;101423.03;5040964;28;20388;-60
2022/10/01 07:43:27;;;;;;;8.32;3.97;;;;;;;24.68;46.87;101425.75;5025178;28;20387;-60
2022/10/01 07:45:56;;;;;;;9.85;4.13;;;;;;;24.58;47.27;101429.13;5028455;28;20794;-61
2022/10/01 07:48:26;;;;;;;10.93;3.78;;;;;;;24.66;47.35;101438.72;5026641;28;20419;-61
2022/10/01 07:50:52;;;;;;;8.65;3.83;;;;;;;24.39;47.49;101439.34;5025919;28;20395;-60
2022/10/01 07:53:18;;;;;;;5.88;3.72;;;;;;;24.10;47.93;101433.13;5027631;28;20387;-60
2022/10/01 07:55:44;;;;;;;8.00;4.47;;;;;;;24.01;48.40;101429.19;5029204;28;20450;-61
2022/10/01 07:58:10;;;;;;;6.82;4.32;;;;;;;23.95;48.58;101430.97;5027108;28;20430;-61
2022/10/01 08:00:37;;;;;;;5.95;4.30;;;;;;;23.94;48.46;101421.19;5026600;28;20445;-61
2022/10/01 08:03:03;;;;;;;11.55;4.57;;;;;;;23.88;49.04;101434.88;5032288;28;20382;-61
2022/10/01 08:05:32;;;;;;;9.63;4.40;;;;;;;23.91;48.95;101432.50;5046046;28;20425;-60
2022/10/01 08:09:37;;;;;;;8.18;4.28;;;;;;;24.24;48.74;101429.06;5088998;27;20464;-61
2022/10/01 08:12:02;;;;;;;7.40;4.00;;;;;;;24.53;47.86;101423.63;5083342;28;21145;-61
2022/10/01 08:14:29;;;;;;;8.00;4.30;;;;;;;24.58;47.49;101420.19;5082102;28;20390;-61
2022/10/01 08:16:55;;;;;;;5.63;4.47;;;;;;;24.43;47.44;101424.25;5085499;28;20717;-60
2022/10/01 08:19:21;;;;;;;7.28;5.32;;;;;;;24.49;47.57;101430.56;5084679;28;20826;-60
2022/10/01 08:21:46;;;;;;;9.10;5.03;;;;;;;24.49;47.83;101440.56;5083390;28;20892;-60
2022/10/01 08:24:12;;;;;;;9.77;5.68;;;;;;;24.41;47.72;101448.03;5082681;28;20746;-60
2022/10/01 08:26:38;;;;;;;7.03;4.78;;;;;;;24.51;47.82;101444.69;5084017;28;20401;-60
2022/10/01 08:29:04;;;;;;;11.27;6.27;;;;;;;24.61;47.85;101428.63;5084737;28;20783;-60
2022/10/01 08:31:29;;;;;;;8.18;5.55;;;;;;;24.59;48.08;101419.91;5065813;28;20976;-60
2022/10/01 08:33:55;;;;;;;8.10;6.27;;;;;;;24.39;48.76;101425.78;5065755;27;20391;-60
2022/10/01 08:36:21;;;;;;;8.80;5.83;;;;;;;24.48;48.81;101420.78;5047501;28;20397;-59
2022/10/01 08:38:47;;;;;;;7.40;5.45;;;;;;;24.49;48.97;101421.59;5045773;28;20393;-60
2022/10/01 08:41:57;;;;;;;9.73;5.35;;;;;;;24.34;49.28;101430.28;5049471;28;20860;-60
2022/10/01 08:44:29;;;;;;;8.85;5.18;;;;;;;24.37;49.16;101411.66;5040474;28;20401;-59
2022/10/01 08:47:02;;;;;;;8.88;5.20;;;;;;;24.48;49.51;101433.53;5049586;28;20469;-60
2022/10/01 08:49:43;;;;;;;7.57;5.00;;;;;;;24.56;49.17;101422.28;5049461;28;20914;-60
2022/10/01 08:52:24;;;;;;;5.93;4.68;;;;;;;24.40;49.77;101426.63;5047760;28;20560;-60
2022/10/01 08:55:15;;;;;;;8.85;4.97;;;;;;;24.54;49.81;101419.00;5041248;28;20378;-62
2022/10/01 08:58:10;;;;;;;8.53;4.87;;;;;;;24.68;49.38;101423.03;5050452;28;20389;-61
2022/10/01 09:00:41;;;;;;;6.85;4.78;;;;;;;24.69;49.17;101407.59;5044098;28;20433;-60
2022/10/01 09:03:12;;;;;;;7.60;4.57;;;;;;;24.53;49.48;101415.47;5045304;28;20382;-61
2022/10/01 09:05:40;;;;;;;12.10;5.20;;;;;;;24.40;50.19;101411.19;5044952;28;20397;-60
2022/10/01 09:08:42;;;;;;;7.18;4.93;;;;;;;24.70;49.45;101398.38;5045512;28;20429;-60
2022/10/01 09:11:27;;;;;;;9.93;5.05;;;;;;;24.72;49.31;101399.78;5044823;28;20473;-61
2022/10/01 09:14:05;;;;;;;8.57;4.80;;;;;;;24.50;49.58;101401.56;5026736;28;20457;-60
2022/10/01 09:17:00;;;;;;;6.88;4.65;;;;;;;24.54;49.74;101405.44;5026651;28;20391;-60
2022/10/01 09:19:49;;;;;;;9.43;4.70;;;;;;;24.61;49.64;101406.09;5014107;28;20395;-59
2022/10/01 09:22:14;;;;;;;8.70;4.53;;;;;;;24.54;50.21;101408.16;5026406;28;20406;-60
2022/10/01 09:24:49;;;;;;;5.80;4.20;;;;;;;24.76;49.73;101409.06;5026778;28;20856;-60
2022/10/01 09:27:22;;;;;;;7.68;4.05;;;;;;;24.75;49.50;101410.13;5026370;28;20391;-60
2022/10/01 09:29:51;;;;;;;7.70;4.18;;;;;;;24.71;49.66;101419.00;5013775;28;20404;-60
2022/10/01 09:32:25;;;;;;;9.17;4.23;;;;;;;24.79;49.58;101416.72;5026618;28;20387;-60
2022/10/01 09:34:52;;;;;;;7.53;4.25;;;;;;;24.85;49.25;101414.91;5026327;28;20409;-60
2022/10/01 09:37:35;;;;;;;6.32;4.05;;;;;;;24.89;49.30;101413.31;5026169;28;20474;-61
2022/10/01 09:40:22;;;;;;;6.47;4.23;;;;;;;24.82;49.17;101404.53;5016177;28;20390;-60
2022/10/01 09:42:48;;;;;;;6.90;4.50;;;;;;;24.85;49.35;101403.22;5025905;28;20391;-60
2022/10/01 09:45:14;;;;;;;8.87;4.53;;;;;;;24.94;49.28;101396.31;5025891;28;20403;-60
2022/10/01 09:47:44;;;;;;;10.03;4.03;;;;;;;24.88;49.37;101389.97;5025984;28;21126;-60
2022/10/01 09:50:40;;;;;;;8.18;4.50;;;;;;;24.95;49.69;101390.63;5025941;28;20415;-60
2022/10/01 09:53:15;;;;;;;5.57;3.90;;;;;;;24.90;49.48;101382.44;5025901;28;20379;-60
2022/10/01 09:55:46;;;;;;;8.02;4.40;;;;;;;24.94;49.72;101375.44;5025868;28;20384;-60
2022/10/01 09:58:16;;;;;;;8.40;3.80;;;;;;;24.74;49.29;101384.09;5026181;28;20430;-60
2022/10/01 10:00:43;;;;;;;9.45;4.20;;;;;;;24.74;49.51;101388.69;5025671;28;20430;-60
2022/10/01 10:03:08;;;;;;;9.17;3.60;;;;;;;24.90;49.38;101392.44;5025521;28;21881;-60
2022/10/01 10:05:48;;;;;;;12.45;4.35;;;;;;;24.97;49.34;101391.22;5017956;28;20423;-60
2022/10/01 10:08:27;;;;;;;7.40;3.83;;;;;;;25.08;49.07;101380.47;5007864;28;20396;-61
2022/10/01 10:10:59;;;;;;;5.05;3.83;;;;;;;25.05;48.86;101387.25;5042600;28;20457;-63
2022/10/01 10:13:38;;;;;;;7.05;5.05;;;;;;;24.94;49.47;101382.75;5045055;28;20401;-62
2022/10/01 10:16:28;;;;;;;7.28;4.75;;;;;;;24.73;49.70;101392.47;5045356;28;20389;-61
2022/10/01 10:18:59;;;;;;;9.43;4.78;;;;;;;24.68;50.04;101376.94;5023648;28;20410;-61
2022/10/01 10:21:33;;;;;;;6.95;4.20;;;;;;;24.69;49.95;101369.66;5038883;28;20370;-61
2022/10/01 10:24:05;;;;;;;8.23;4.50;;;;;;;24.76;50.00;101368.41;5032029;28;20776;-61
2022/10/01 10:26:34;;;;;;;6.57;4.32;;;;;;;24.62;50.13;101358.97;5032329;28;20429;-60
2022/10/01 10:29:01;;;;;;;8.82;4.45;;;;;;;24.42;50.86;101360.25;5031881;28;20907;-60
2022/10/01 10:31:45;;;;;;;7.28;4.75;;;;;;;24.31;51.35;101363.88;5032162;28;20402;-60
2022/10/01 10:34:34;;;;;;;6.72;4.72;;;;;;;24.22;51.19;101341.78;5031851;28;20560;-60
2022/10/01 10:37:04;;;;;;;8.30;4.78;;;;;;;24.07;51.90;101343.41;5031436;28;20398;-61
2022/10/01 10:39:39;;;;;;;7.75;4.93;;;;;;;23.88;52.29;101340.94;5031719;28;20386;-60
2022/10/01 10:42:06;;;;;;;7.38;4.60;;;;;;;23.80;52.59;101330.50;5031614;28;20760;-60
2022/10/01 10:44:38;;;;;;;6.25;4.70;;;;;;;23.95;51.99;101327.22;5031679;28;20387;-60
2022/10/01 10:47:10;;;;;;;7.45;5.00;;;;;;;24.03;52.15;101343.91;5031775;28;20410;-60
2022/10/01 10:49:51;;;;;;;6.43;4.55;;;;;;;24.30;51.66;101351.38;5031772;28;20430;-60
2022/10/01 10:52:23;;;;;;;6.57;4.40;;;;;;;24.41;51.47;101338.81;5026940;28;20400;-60
2022/10/01 10:54:55;;;;;;;5.22;4.20;;;;;;;24.26;51.55;101327.75;5025904;28;20388;-60
2022/10/01 10:57:29;;;;;;;5.68;4.45;;;;;;;24.08;51.65;101302.56;5020184;28;20383;-60
2022/10/01 11:00:00;;;;;;;6.18;4.47;;;;;;;23.91;52.27;101280.88;5031417;28;20386;-59
2022/10/01 11:02:29;;;;;;;8.10;4.60;;;;;;;23.87;52.55;101265.38;5031272;28;20811;-60
2022/10/01 11:05:03;;;;;;;9.25;4.53;;;;;;;23.87;52.60;101258.06;5031204;28;20390;-60
2022/10/01 11:07:30;;;;;;;7.15;4.70;;;;;;;23.95;53.09;101246.00;5031446;28;20437;-61
2022/10/01 11:10:14;;;;;;;6.97;4.80;;;;;;;23.95;52.79;101243.28;5031163;28;20426;-61
2022/10/01 11:12:55;;;;;;;5.95;4.63;;;;;;;23.97;52.66;101258.22;5019963;28;20899;-61
2022/10/01 11:15:39;;;;;;;6.25;4.22;;;;;;;24.21;51.95;101283.25;5031131;28;20401;-60
2022/10/01 11:18:31;;;;;;;6.55;4.60;;;;;;;24.40;51.44;101301.97;5031208;28;20390;-61
2022/10/01 11:21:34;;;;;;;7.45;4.80;;;;;;;24.56;51.43;101303.03;5017918;28;20856;-61
2022/10/01 11:24:31;;;;;;;14.33;5.30;;;;;;;24.60;51.47;101299.56;5030914;28;20390;-60
2022/10/01 11:27:16;;;;;;;7.78;4.60;;;;;;;24.70;50.63;101289.94;5031057;28;20390;-61
2022/10/01 11:29:49;;;;;;;6.47;4.33;;;;;;;24.75;50.28;101268.31;5017350;28;20497;-61
2022/10/01 11:32:32;;;;;;;7.60;4.47;;;;;;;24.73;50.23;101262.34;5030702;28;20478;-60
2022/10/01 11:35:17;;;;;;;7.30;4.07;;;;;;;24.70;50.46;101265.53;5025872;28;20536;-60
2022/10/01 11:38:10;;;;;;;7.83;4.57;;;;;;;24.70;50.27;101266.34;5029345;28;20469;-61
2022/10/01 11:41:18;;;;;;;7.38;4.43;;;;;;;24.78;50.29;101256.97;5073794;27;20477;-62
2022/10/01 11:48:11;;;;;;;6.00;4.28;;;;;;;24.64;50.28;101212.34;5086870;27;20460;-61
2022/10/01 11:50:45;;;;;;;7.13;4.35;;;;;;;24.60;50.56;101206.59;5076016;28;20971;-60
2022/10/01 11:53:35;;;;;;;7.63;4.55;;;;;;;24.43;50.75;101201.19;5079310;28;20426;-60
2022/10/01 11:58:57;;;;;;;7.20;3.97;;;;;;;24.24;51.38;101173.59;5074041;28;20389;-60
2022/10/01 12:01:23;;;;;;;8.23;4.13;;;;;;;24.28;51.39;101163.06;5080987;28;20478;-60
2022/10/01 12:03:52;;;;;;;5.03;4.25;;;;;;;24.17;51.96;101141.25;5068132;28;20894;-60
2022/10/01 12:06:51;;;;;;;7.47;4.15;;;;;;;24.02;52.51;101125.63;5065971;28;20790;-61
2022/10/01 12:09:23;;;;;;;9.32;4.80;;;;;;;23.97;53.17;101113.91;5048398;28;20912;-60
2022/10/01 12:12:18;;;;;;;7.72;4.82;;;;;;;23.96;53.08;101104.13;5066453;28;20963;-60
2022/10/01 12:14:51;;;;;;;6.10;4.87;;;;;;;23.99;53.00;101112.56;5065982;28;20757;-60
2022/10/01 12:17:19;;;;;;;8.70;4.90;;;;;;;24.00;52.92;101116.94;5066700;28;20376;-61
2022/10/01 12:19:49;;;;;;;6.53;4.70;;;;;;;23.99;52.90;101112.56;5073978;28;20394;-59
2022/10/01 12:22:34;;;;;;;8.93;4.85;;;;;;;23.87;53.94;101108.34;5080171;28;20386;-61
2022/10/01 12:25:00;;;;;;;8.15;5.20;;;;;;;23.93;53.66;101104.63;5065440;28;20406;-61